Time;durP1;ratioP1;P1;durP2;ratioP2;P2;SDS_P1;SDS_P2;PMS_P1;PMS_P2;Temp;Humidity;BMP_temperature;BMP_pressure;BME280_temperature;BME280_humidity;BME280_pressure;Samples;Min_cycle;Max_cycle;Signal;HPM_P1;HPM_P2
2021/11/04 00:01:12;;;;;;;1.92;1.20;;;7.80;21.60;;;;;;5122248;27;20054;-68
2021/11/04 00:03:43;;;;;;;2.28;1.30;;;7.90;23.30;;;;;;5098621;28;20128;-68
2021/11/04 00:06:13;;;;;;;1.70;1.30;;;7.90;25.50;;;;;;5086918;28;20032;-68
2021/11/04 00:08:41;;;;;;;3.63;1.38;;;7.80;24.80;;;;;;5126122;27;20040;-68
2021/11/04 00:11:11;;;;;;;2.30;1.42;;;7.70;23.30;;;;;;5095470;28;20491;-68
2021/11/04 00:13:41;;;;;;;1.80;1.17;;;7.80;24.80;;;;;;5119316;27;20067;-67
2021/11/04 00:16:11;;;;;;;1.40;1.30;;;7.80;25.00;;;;;;5118343;28;20051;-68
2021/11/04 00:18:42;;;;;;;2.05;1.40;;;7.70;23.40;;;;;;5113711;28;20510;-68
2021/11/04 00:21:10;;;;;;;1.27;1.10;;;7.60;24.30;;;;;;5118014;27;20128;-68
2021/11/04 00:23:41;;;;;;;3.08;1.45;;;7.70;23.70;;;;;;5120142;27;20044;-68
2021/11/04 00:26:09;;;;;;;4.40;1.50;;;7.60;24.40;;;;;;5095500;27;20092;-67
2021/11/04 00:28:40;;;;;;;1.73;1.30;;;7.60;24.70;;;;;;5086383;27;20043;-67
2021/11/04 00:31:09;;;;;;;1.50;1.38;;;7.60;25.00;;;;;;5124607;27;20126;-67
2021/11/04 00:33:37;;;;;;;2.38;1.38;;;7.60;24.10;;;;;;5120585;27;20050;-68
2021/11/04 00:36:05;;;;;;;2.05;1.45;;;7.60;24.70;;;;;;5125339;27;20138;-68
2021/11/04 00:38:39;;;;;;;3.03;2.17;;;7.50;25.30;;;;;;5123207;27;20122;-68
2021/11/04 00:41:09;;;;;;;2.42;2.05;;;7.50;25.00;;;;;;5122116;27;20039;-68
2021/11/04 00:43:42;;;;;;;4.22;2.20;;;7.50;25.80;;;;;;5123468;27;20036;-68
2021/11/04 00:46:16;;;;;;;2.70;2.05;;;7.50;26.40;;;;;;5122804;27;20043;-68
2021/11/04 00:48:49;;;;;;;2.65;2.13;;;7.50;26.00;;;;;;5117801;27;20049;-68
2021/11/04 00:51:17;;;;;;;3.10;1.80;;;7.60;26.40;;;;;;5116941;27;20047;-67
2021/11/04 00:53:45;;;;;;;2.63;2.05;;;7.60;27.10;;;;;;5096378;27;20065;-68
2021/11/04 00:56:13;;;;;;;4.32;1.98;;;7.60;28.00;;;;;;5115771;27;20138;-69
2021/11/04 00:58:49;;;;;;;3.05;2.00;;;7.60;28.10;;;;;;5121310;27;20489;-67
2021/11/04 01:01:18;;;;;;;2.53;1.70;;;7.60;28.60;;;;;;5119512;27;20051;-67
2021/11/04 01:03:49;;;;;;;2.25;1.98;;;7.70;29.00;;;;;;5114821;27;20085;-68
2021/11/04 01:06:20;;;;;;;2.22;1.70;;;7.70;28.50;;;;;;5114241;27;20040;-68
2021/11/04 01:08:48;;;;;;;3.30;1.98;;;7.70;28.20;;;;;;5115098;27;20054;-68
2021/11/04 01:11:17;;;;;;;2.92;1.98;;;7.60;28.00;;;;;;5120061;27;20048;-67
2021/11/04 01:13:47;;;;;;;2.45;1.50;;;7.60;28.10;;;;;;5112888;27;20046;-68
2021/11/04 01:16:16;;;;;;;2.17;1.85;;;7.60;28.00;;;;;;5114165;27;20114;-68
2021/11/04 01:18:44;;;;;;;3.40;1.80;;;7.60;28.10;;;;;;5096425;27;20055;-68
2021/11/04 01:21:15;;;;;;;1.98;1.70;;;7.60;28.10;;;;;;5120602;27;20124;-67
2021/11/04 01:23:43;;;;;;;4.90;1.88;;;7.50;29.60;;;;;;5115940;27;20072;-67
2021/11/04 01:26:15;;;;;;;2.90;1.63;;;7.40;31.70;;;;;;5102537;27;20039;-67
2021/11/04 01:28:49;;;;;;;3.17;1.88;;;7.30;33.30;;;;;;5117174;27;20063;-67
2021/11/04 01:31:17;;;;;;;3.42;2.58;;;7.40;35.80;;;;;;5127177;27;20518;-67
2021/11/04 01:33:45;;;;;;;3.05;2.47;;;7.30;36.10;;;;;;5124262;27;20050;-67
2021/11/04 01:36:13;;;;;;;3.10;2.80;;;7.20;38.40;;;;;;5113560;27;20456;-67
2021/11/04 01:38:41;;;;;;;4.10;3.42;;;7.20;39.80;;;;;;5119953;27;20586;-67
2021/11/04 01:41:11;;;;;;;3.85;3.25;;;7.20;41.60;;;;;;5122275;27;20091;-67
2021/11/04 01:43:44;;;;;;;3.92;3.03;;;6.90;40.80;;;;;;5114768;27;20043;-68
2021/11/04 01:46:14;;;;;;;4.40;3.30;;;6.60;43.60;;;;;;5101501;27;20097;-68
2021/11/04 01:48:44;;;;;;;3.17;2.70;;;6.60;44.40;;;;;;5117849;27;20088;-68
2021/11/04 01:51:12;;;;;;;3.15;2.70;;;6.30;44.90;;;;;;5118245;27;20047;-67
2021/11/04 01:53:40;;;;;;;2.92;2.60;;;6.30;46.70;;;;;;5120443;27;20150;-67
2021/11/04 01:56:08;;;;;;;4.28;2.70;;;6.20;45.80;;;;;;5116318;27;20039;-67
2021/11/04 01:58:38;;;;;;;2.90;2.60;;;6.30;46.40;;;;;;5115402;27;20036;-68
2021/11/04 02:01:06;;;;;;;3.55;2.67;;;6.10;43.80;;;;;;5125283;27;20054;-66
2021/11/04 02:03:45;;;;;;;3.35;2.67;;;6.10;45.20;;;;;;5115411;27;20450;-69
2021/11/04 02:06:20;;;;;;;3.90;3.03;;;6.00;44.50;;;;;;5121481;27;20050;-68
2021/11/04 02:08:56;;;;;;;3.47;2.88;;;6.00;44.70;;;;;;5120718;27;20052;-68
2021/11/04 02:11:30;;;;;;;3.90;3.13;;;5.90;43.90;;;;;;5119777;27;20039;-68
2021/11/04 02:14:00;;;;;;;3.63;2.60;;;5.90;43.50;;;;;;5120957;27;20043;-68
2021/11/04 02:16:32;;;;;;;4.22;2.83;;;5.90;43.50;;;;;;5118811;27;20051;-66
2021/11/04 02:19:14;;;;;;;3.95;2.70;;;5.90;42.90;;;;;;5095726;27;20055;-67
2021/11/04 02:21:56;;;;;;;3.13;2.80;;;5.90;42.90;;;;;;5098040;27;20541;-67
2021/11/04 02:24:37;;;;;;;6.07;2.97;;;5.90;41.60;;;;;;5120190;27;20066;-68
2021/11/04 02:27:08;;;;;;;4.75;2.92;;;6.00;41.50;;;;;;5116163;27;20043;-67
2021/11/04 02:29:38;;;;;;;3.35;2.85;;;5.90;39.60;;;;;;5117794;27;20074;-67
2021/11/04 02:32:08;;;;;;;4.70;3.45;;;5.90;38.70;;;;;;5121496;27;20051;-67
2021/11/04 02:34:40;;;;;;;5.82;3.75;;;6.00;38.90;;;;;;5114914;27;20398;-67
2021/11/04 02:37:09;;;;;;;3.70;2.95;;;5.90;36.80;;;;;;5116597;27;20129;-67
2021/11/04 02:39:38;;;;;;;3.92;2.80;;;5.90;37.50;;;;;;5117358;27;20146;-68
2021/11/04 02:42:10;;;;;;;3.95;2.70;;;5.90;36.60;;;;;;5117573;27;20054;-67
2021/11/04 02:44:39;;;;;;;4.55;3.17;;;5.90;37.10;;;;;;5118782;27;20119;-67
2021/11/04 02:47:07;;;;;;;3.72;2.95;;;5.80;34.50;;;;;;5120112;27;20387;-68
2021/11/04 02:49:38;;;;;;;4.82;2.65;;;5.80;35.40;;;;;;5120053;27;20130;-67
2021/11/04 02:52:07;;;;;;;5.60;3.28;;;5.90;35.00;;;;;;5121355;27;20552;-67
2021/11/04 02:54:35;;;;;;;3.60;2.72;;;5.80;34.50;;;;;;5099144;27;20134;-67
2021/11/04 02:57:03;;;;;;;5.35;2.78;;;5.90;35.60;;;;;;5120190;27;20513;-68
2021/11/04 02:59:33;;;;;;;3.38;2.58;;;5.90;35.20;;;;;;5125968;27;20043;-67
2021/11/04 03:02:01;;;;;;;5.03;2.63;;;5.90;34.50;;;;;;5115930;27;20058;-68
2021/11/04 03:04:29;;;;;;;4.32;2.30;;;5.90;34.60;;;;;;5116445;27;20755;-68
2021/11/04 03:06:57;;;;;;;3.53;2.65;;;5.90;32.30;;;;;;5124800;27;20066;-68
2021/11/04 03:09:25;;;;;;;3.70;2.53;;;5.80;31.20;;;;;;5118017;27;20409;-68
2021/11/04 03:11:55;;;;;;;6.15;2.80;;;5.90;33.30;;;;;;5123402;27;20047;-68
2021/11/04 03:14:26;;;;;;;4.85;2.83;;;5.90;32.60;;;;;;5119027;27;20074;-68
2021/11/04 03:16:58;;;;;;;5.82;2.70;;;5.80;31.70;;;;;;5112960;27;20137;-68
2021/11/04 03:19:27;;;;;;;3.95;3.08;;;5.80;32.10;;;;;;5113206;27;20127;-69
2021/11/04 03:21:58;;;;;;;4.15;2.90;;;5.80;33.10;;;;;;5123988;27;20047;-68
2021/11/04 03:24:27;;;;;;;3.92;2.97;;;5.80;30.90;;;;;;5115475;27;20043;-68
2021/11/04 03:27:02;;;;;;;4.72;3.38;;;5.90;30.40;;;;;;5124581;27;20047;-68
2021/11/04 03:29:34;;;;;;;3.90;3.10;;;5.90;31.60;;;;;;5122627;27;20061;-68
2021/11/04 03:32:07;;;;;;;4.40;3.15;;;5.90;31.60;;;;;;5114388;28;20043;-68
2021/11/04 03:34:38;;;;;;;5.47;3.33;;;5.90;30.30;;;;;;5101080;28;20572;-68
2021/11/04 03:37:07;;;;;;;4.45;2.90;;;5.90;30.70;;;;;;5118896;28;20490;-67
2021/11/04 03:39:40;;;;;;;3.47;2.50;;;5.90;31.30;;;;;;5113724;27;20079;-67
2021/11/04 03:42:12;;;;;;;4.47;3.13;;;5.90;29.60;;;;;;5121692;27;20035;-67
2021/11/04 03:44:42;;;;;;;3.47;2.88;;;5.80;29.30;;;;;;5119141;27;20067;-67
2021/11/04 03:47:16;;;;;;;3.15;2.70;;;5.80;30.20;;;;;;5116131;27;20055;-68
2021/11/04 03:49:45;;;;;;;7.10;3.58;;;5.80;29.60;;;;;;5123596;27;20085;-68
2021/11/04 03:52:14;;;;;;;4.93;3.50;;;5.90;29.70;;;;;;5118641;27;20035;-68
2021/11/04 03:54:43;;;;;;;4.20;2.95;;;5.90;30.00;;;;;;5116398;27;20138;-68
2021/11/04 03:57:13;;;;;;;3.40;2.58;;;5.70;30.20;;;;;;5120668;28;20035;-67
2021/11/04 03:59:41;;;;;;;3.08;2.50;;;5.70;30.50;;;;;;5116632;27;20423;-67
2021/11/04 04:02:09;;;;;;;3.55;2.55;;;5.70;31.30;;;;;;5125057;27;20085;-68
2021/11/04 04:04:42;;;;;;;3.28;2.55;;;5.80;32.40;;;;;;5123312;27;20486;-68
2021/11/04 04:07:10;;;;;;;4.28;2.78;;;5.70;31.70;;;;;;5117569;27;20050;-68
2021/11/04 04:09:39;;;;;;;6.72;2.92;;;5.80;31.80;;;;;;5125051;27;20127;-67
2021/11/04 04:12:08;;;;;;;5.47;3.00;;;5.80;31.40;;;;;;5121968;27;20077;-68
2021/11/04 04:14:36;;;;;;;6.45;4.22;;;5.80;32.60;;;;;;5099894;27;20627;-67
2021/11/04 04:17:07;;;;;;;5.38;3.53;;;5.80;31.70;;;;;;5120457;27;20050;-67
2021/11/04 04:19:35;;;;;;;4.80;3.25;;;5.80;31.20;;;;;;5118886;27;20057;-67
2021/11/04 04:22:07;;;;;;;4.78;3.45;;;5.80;32.60;;;;;;5123059;27;20112;-68
2021/11/04 04:24:37;;;;;;;5.15;3.50;;;5.90;32.80;;;;;;5123470;27;20043;-69
2021/11/04 04:27:05;;;;;;;3.97;2.95;;;5.90;33.50;;;;;;5121177;27;20365;-68
2021/11/04 04:29:34;;;;;;;6.10;3.67;;;5.80;32.00;;;;;;5120574;27;20036;-68
2021/11/04 04:32:02;;;;;;;5.63;3.88;;;5.80;31.50;;;;;;5122072;27;20051;-68
2021/11/04 04:34:30;;;;;;;7.05;3.28;;;5.80;31.70;;;;;;5117067;27;20042;-68
2021/11/04 04:36:58;;;;;;;4.43;3.30;;;5.90;31.80;;;;;;5120755;27;20134;-67
2021/11/04 04:39:28;;;;;;;4.93;3.05;;;5.90;32.50;;;;;;5122231;27;20043;-68
2021/11/04 04:41:57;;;;;;;3.78;2.85;;;5.90;32.50;;;;;;5124540;27;20047;-67
2021/11/04 04:44:24;;;;;;;4.13;2.72;;;5.90;32.10;;;;;;5123583;27;20104;-67
2021/11/04 04:46:53;;;;;;;2.85;2.10;;;5.80;30.70;;;;;;5120243;27;20122;-67
2021/11/04 04:49:21;;;;;;;2.72;2.30;;;5.70;30.00;;;;;;5120176;27;20501;-67
2021/11/04 04:51:49;;;;;;;3.30;2.30;;;5.70;30.20;;;;;;5123762;27;20498;-67
2021/11/04 04:54:20;;;;;;;3.47;2.47;;;5.70;32.10;;;;;;5120537;27;20035;-67
2021/11/04 04:56:49;;;;;;;3.97;2.75;;;5.70;31.40;;;;;;5117783;27;20051;-67
2021/11/04 04:59:17;;;;;;;3.47;2.70;;;5.80;32.40;;;;;;5125347;27;20078;-67
2021/11/04 05:01:45;;;;;;;3.88;2.90;;;5.70;31.10;;;;;;5118351;27;20490;-68
2021/11/04 05:04:15;;;;;;;3.08;2.30;;;5.80;32.60;;;;;;5120986;27;20490;-67
2021/11/04 05:06:43;;;;;;;3.95;2.33;;;5.90;32.70;;;;;;5122077;27;20058;-69
2021/11/04 05:09:12;;;;;;;3.40;2.28;;;5.90;32.90;;;;;;5118986;27;20032;-68
2021/11/04 05:11:40;;;;;;;3.10;2.20;;;5.80;30.20;;;;;;5126132;27;20037;-66
2021/11/04 05:14:11;;;;;;;3.47;2.45;;;5.90;32.30;;;;;;5123142;27;20054;-67
2021/11/04 05:16:40;;;;;;;2.53;2.20;;;6.00;30.50;;;;;;5119190;27;20603;-67
2021/11/04 05:19:09;;;;;;;4.25;2.45;;;6.00;31.00;;;;;;5125279;27;20066;-67
2021/11/04 05:21:37;;;;;;;3.05;2.20;;;6.10;29.90;;;;;;5121175;27;20108;-67
2021/11/04 05:24:08;;;;;;;2.88;2.03;;;6.00;29.70;;;;;;5121757;27;20399;-67
2021/11/04 05:26:39;;;;;;;2.67;2.03;;;6.10;29.70;;;;;;5119170;27;20095;-67
2021/11/04 05:29:08;;;;;;;2.15;1.63;;;6.10;29.20;;;;;;5115751;27;20289;-68
2021/11/04 05:31:38;;;;;;;3.15;2.38;;;6.10;27.10;;;;;;5118409;27;20043;-68
2021/11/04 05:34:08;;;;;;;2.55;1.73;;;6.10;27.70;;;;;;5119604;27;20039;-68
2021/11/04 05:36:36;;;;;;;2.42;1.85;;;6.00;27.60;;;;;;5114119;27;20082;-68
2021/11/04 05:39:06;;;;;;;3.33;2.08;;;6.10;28.60;;;;;;5120662;27;20043;-68
2021/11/04 05:41:35;;;;;;;2.25;2.05;;;6.10;28.30;;;;;;5119059;27;20040;-67
2021/11/04 05:44:03;;;;;;;2.38;1.85;;;6.00;27.80;;;;;;5119183;27;20118;-68
2021/11/04 05:46:31;;;;;;;6.28;2.08;;;6.10;28.40;;;;;;5116650;27;20049;-68
2021/11/04 05:49:03;;;;;;;3.03;1.83;;;6.10;28.10;;;;;;5115918;27;20035;-67
2021/11/04 05:51:31;;;;;;;2.58;2.22;;;6.10;27.10;;;;;;5116594;27;20035;-68
2021/11/04 05:53:59;;;;;;;2.25;1.90;;;6.10;28.30;;;;;;5122776;27;20097;-68
2021/11/04 05:56:31;;;;;;;2.65;1.65;;;6.10;27.10;;;;;;5116614;27;20092;-68
2021/11/04 05:59:02;;;;;;;2.10;1.70;;;6.20;28.80;;;;;;5121279;27;20118;-68
2021/11/04 06:01:35;;;;;;;2.92;1.90;;;6.20;27.60;;;;;;5116671;27;20047;-67
2021/11/04 06:04:07;;;;;;;3.13;1.70;;;6.10;26.60;;;;;;5117451;27;20059;-68
2021/11/04 06:06:36;;;;;;;2.35;2.15;;;6.10;27.10;;;;;;5119190;27;20096;-67
2021/11/04 06:09:04;;;;;;;1.83;1.63;;;6.20;28.30;;;;;;5117272;27;20044;-68
2021/11/04 06:11:32;;;;;;;1.83;1.60;;;6.10;28.10;;;;;;5115897;27;20066;-68
2021/11/04 06:14:01;;;;;;;2.80;2.10;;;6.10;28.10;;;;;;5117546;27;20067;-68
2021/11/04 06:16:33;;;;;;;4.45;2.33;;;6.20;28.70;;;;;;5115877;27;20147;-68
2021/11/04 06:19:04;;;;;;;3.45;2.15;;;6.30;28.70;;;;;;5114567;27;20035;-68
2021/11/04 06:21:37;;;;;;;5.40;2.30;;;6.20;27.30;;;;;;5115903;27;20050;-68
2021/11/04 06:24:05;;;;;;;3.13;2.33;;;6.20;27.20;;;;;;5116194;27;20035;-68
2021/11/04 06:26:35;;;;;;;3.67;2.35;;;6.30;27.20;;;;;;5116554;27;20961;-67
2021/11/04 06:29:06;;;;;;;2.22;2.03;;;6.30;27.20;;;;;;5118258;27;20048;-67
2021/11/04 06:31:39;;;;;;;3.70;2.35;;;6.20;27.10;;;;;;5118145;27;20047;-67
2021/11/04 06:34:07;;;;;;;4.53;2.10;;;6.30;27.20;;;;;;5117646;27;20130;-67
2021/11/04 06:36:41;;;;;;;3.72;2.13;;;6.30;27.10;;;;;;5116813;27;20096;-67
2021/11/04 06:39:09;;;;;;;2.97;2.15;;;6.20;27.20;;;;;;5113503;27;20039;-67
2021/11/04 06:41:37;;;;;;;3.60;2.20;;;6.30;27.40;;;;;;5122731;27;20045;-68
2021/11/04 06:44:07;;;;;;;4.70;2.38;;;6.30;26.00;;;;;;5117779;27;20167;-68
2021/11/04 06:46:37;;;;;;;3.47;2.13;;;6.30;26.00;;;;;;5118423;27;20130;-67
2021/11/04 06:49:10;;;;;;;2.83;2.00;;;6.30;27.10;;;;;;5123206;27;20482;-67
2021/11/04 06:51:45;;;;;;;2.80;1.98;;;6.30;26.70;;;;;;5114623;27;20055;-68
2021/11/04 06:54:16;;;;;;;2.30;1.83;;;6.40;26.50;;;;;;5116151;27;20490;-68
2021/11/04 06:56:45;;;;;;;2.90;1.70;;;6.30;25.40;;;;;;5119431;27;20070;-67
2021/11/04 06:59:18;;;;;;;2.65;1.70;;;6.40;26.40;;;;;;5114039;27;20039;-68
2021/11/04 07:01:54;;;;;;;2.42;1.90;;;6.40;25.90;;;;;;5117270;27;20104;-67
2021/11/04 07:04:29;;;;;;;2.50;1.73;;;6.40;26.80;;;;;;5122598;27;20108;-68
2021/11/04 07:07:07;;;;;;;2.53;1.80;;;6.40;26.90;;;;;;5115633;27;20555;-68
2021/11/04 07:09:37;;;;;;;3.03;1.90;;;6.40;26.30;;;;;;5120974;27;20071;-68
2021/11/04 07:12:08;;;;;;;2.85;1.95;;;6.50;25.80;;;;;;5121567;27;20047;-67
2021/11/04 07:14:39;;;;;;;3.40;1.85;;;6.50;27.00;;;;;;5116251;27;20134;-68
2021/11/04 07:17:08;;;;;;;3.05;1.73;;;6.40;25.90;;;;;;5120424;27;20479;-68
2021/11/04 07:19:36;;;;;;;1.83;1.58;;;6.40;26.90;;;;;;5118148;27;20051;-67
2021/11/04 07:22:21;;;;;;;2.50;1.60;;;6.50;26.50;;;;;;5120967;27;20387;-67
2021/11/04 07:24:58;;;;;;;3.75;1.63;;;6.40;27.20;;;;;;5121971;27;20104;-68
2021/11/04 07:27:33;;;;;;;2.65;1.70;;;6.60;27.40;;;;;;5098754;27;20158;-68
2021/11/04 07:30:06;;;;;;;3.67;1.98;;;6.60;26.90;;;;;;5112407;28;20074;-68
2021/11/04 07:32:45;;;;;;;2.72;1.80;;;6.70;26.50;;;;;;5119986;27;20499;-67
2021/11/04 07:35:17;;;;;;;3.50;1.60;;;6.60;27.30;;;;;;5114789;27;20039;-68
2021/11/04 07:37:51;;;;;;;1.50;1.40;;;6.60;26.20;;;;;;5116782;28;20067;-68
2021/11/04 07:40:21;;;;;;;1.90;1.70;;;6.50;26.60;;;;;;5100502;28;20051;-68
2021/11/04 07:42:58;;;;;;;2.28;1.70;;;6.50;25.40;;;;;;5117090;27;20055;-67
2021/11/04 07:45:28;;;;;;;1.98;1.77;;;6.50;24.80;;;;;;5097943;28;20140;-66
2021/11/04 07:48:02;;;;;;;2.88;1.92;;;6.40;24.20;;;;;;5121898;27;20230;-67
2021/11/04 07:50:33;;;;;;;3.53;2.22;;;6.40;27.00;;;;;;5116291;27;20456;-68
2021/11/04 07:53:03;;;;;;;3.65;1.90;;;6.50;27.40;;;;;;5114771;28;20040;-68
2021/11/04 07:55:37;;;;;;;2.13;1.73;;;6.60;28.50;;;;;;5121965;27;20104;-67
2021/11/04 07:58:05;;;;;;;2.30;2.10;;;6.50;28.80;;;;;;5098163;28;20409;-67
2021/11/04 08:00:33;;;;;;;3.17;2.40;;;6.50;28.00;;;;;;5099756;28;20039;-67
2021/11/04 08:03:02;;;;;;;3.13;2.15;;;6.50;28.50;;;;;;5114012;28;20050;-67
2021/11/04 08:05:36;;;;;;;5.15;2.35;;;6.50;29.70;;;;;;5112524;28;20078;-66
2021/11/04 08:08:10;;;;;;;4.45;2.10;;;6.50;30.00;;;;;;5117125;27;20047;-68
2021/11/04 08:10:39;;;;;;;2.95;2.20;;;6.50;30.80;;;;;;5123925;27;20115;-67
2021/11/04 08:13:13;;;;;;;5.82;3.00;;;6.50;30.20;;;;;;5112724;27;20127;-67
2021/11/04 08:15:42;;;;;;;3.92;2.60;;;6.50;31.90;;;;;;5119149;27;20046;-67
2021/11/04 08:18:11;;;;;;;3.88;3.05;;;6.40;30.70;;;;;;5120802;27;20046;-67
2021/11/04 08:20:43;;;;;;;3.42;2.78;;;6.30;33.00;;;;;;5113189;28;20390;-67
2021/11/04 08:23:16;;;;;;;4.72;3.15;;;6.40;35.00;;;;;;5116282;27;20055;-67
2021/11/04 08:25:45;;;;;;;4.03;2.92;;;6.40;35.80;;;;;;5114931;27;20058;-67
2021/11/04 08:28:17;;;;;;;5.40;3.47;;;6.40;35.00;;;;;;5118508;27;20120;-67
2021/11/04 08:30:46;;;;;;;4.55;3.25;;;6.40;36.40;;;;;;5119485;27;20509;-67
2021/11/04 08:33:15;;;;;;;5.55;3.58;;;6.40;37.70;;;;;;5119219;27;20047;-67
2021/11/04 08:35:43;;;;;;;7.38;4.28;;;6.40;39.50;;;;;;5117463;27;20035;-67
2021/11/04 08:38:12;;;;;;;7.70;4.30;;;6.40;40.40;;;;;;5122272;27;20664;-67
2021/11/04 08:40:41;;;;;;;6.88;4.47;;;6.30;40.00;;;;;;5116578;27;20043;-67
2021/11/04 08:43:09;;;;;;;6.72;4.72;;;6.30;42.60;;;;;;5109567;27;20051;-68
2021/11/04 08:45:37;;;;;;;7.57;5.28;;;6.40;43.30;;;;;;5118099;28;20047;-66
2021/11/04 08:48:09;;;;;;;7.65;4.65;;;6.30;43.30;;;;;;5120463;27;20039;-67
2021/11/04 08:50:41;;;;;;;7.63;4.68;;;6.40;44.30;;;;;;5121974;27;20036;-67
2021/11/04 08:53:09;;;;;;;6.97;4.97;;;6.40;45.30;;;;;;5124080;27;20047;-67
2021/11/04 08:55:41;;;;;;;8.43;4.20;;;6.50;45.60;;;;;;5115029;27;20109;-67
2021/11/04 08:58:09;;;;;;;10.23;5.57;;;6.40;45.40;;;;;;5123581;27;20308;-66
2021/11/04 09:00:41;;;;;;;5.07;3.60;;;6.40;44.80;;;;;;5124059;27;20190;-69
2021/11/04 09:03:16;;;;;;;5.32;4.00;;;6.40;46.10;;;;;;5119163;27;20487;-67
2021/11/04 09:05:49;;;;;;;6.75;4.60;;;6.30;46.10;;;;;;5119682;27;20089;-66
2021/11/04 09:08:19;;;;;;;4.90;3.45;;;6.40;45.60;;;;;;5122429;27;20051;-66
2021/11/04 09:10:51;;;;;;;6.43;3.30;;;6.40;46.10;;;;;;5121549;27;20046;-68
2021/11/04 09:13:20;;;;;;;4.82;2.90;;;6.40;47.20;;;;;;5120769;27;20512;-69
2021/11/04 09:15:54;;;;;;;5.60;3.42;;;6.40;45.80;;;;;;5121356;27;20054;-69
2021/11/04 09:18:24;;;;;;;4.28;3.33;;;6.50;47.50;;;;;;5114553;27;20047;-67
2021/11/04 09:20:57;;;;;;;5.10;3.03;;;6.50;45.50;;;;;;5124839;27;20051;-67
2021/11/04 09:23:25;;;;;;;3.45;2.60;;;6.50;45.90;;;;;;5118072;27;20119;-65
2021/11/04 09:25:54;;;;;;;3.40;2.45;;;6.60;46.70;;;;;;5120572;27;20150;-67
2021/11/04 09:28:27;;;;;;;4.47;2.30;;;6.70;47.40;;;;;;5117552;27;20407;-68
2021/11/04 09:30:55;;;;;;;3.90;2.55;;;6.70;45.70;;;;;;5117851;27;20049;-68
2021/11/04 09:33:23;;;;;;;3.08;2.13;;;6.80;46.20;;;;;;5115717;27;20490;-68
2021/11/04 09:35:51;;;;;;;2.92;2.13;;;6.70;45.10;;;;;;5122240;27;20081;-67
2021/11/04 09:38:22;;;;;;;4.38;2.50;;;6.70;44.00;;;;;;5113748;27;20035;-68
2021/11/04 09:40:54;;;;;;;2.80;1.90;;;6.80;45.00;;;;;;5118784;27;20054;-68
2021/11/04 09:43:25;;;;;;;3.08;1.88;;;6.80;43.70;;;;;;5114777;27;20464;-67
2021/11/04 09:45:53;;;;;;;3.10;1.90;;;6.80;43.70;;;;;;5115968;27;20044;-68
2021/11/04 09:48:21;;;;;;;2.72;2.25;;;6.80;42.50;;;;;;5128485;27;20054;-68
2021/11/04 09:50:54;;;;;;;4.18;2.33;;;6.80;43.60;;;;;;5121605;27;20138;-69
2021/11/04 09:53:22;;;;;;;3.45;2.13;;;6.80;43.60;;;;;;5118715;27;20047;-68
2021/11/04 09:55:51;;;;;;;2.47;1.60;;;6.70;41.30;;;;;;5123312;27;20462;-68
2021/11/04 09:58:24;;;;;;;4.07;2.70;;;6.90;43.70;;;;;;5120502;27;20070;-69
2021/11/04 10:00:53;;;;;;;2.42;1.80;;;6.90;40.20;;;;;;5095201;27;20489;-69
2021/11/04 10:03:23;;;;;;;2.90;1.85;;;6.90;39.50;;;;;;5120335;27;20172;-69
2021/11/04 10:05:54;;;;;;;2.55;1.88;;;6.90;40.00;;;;;;5114974;27;20048;-69
2021/11/04 10:08:34;;;;;;;3.40;2.03;;;7.00;39.40;;;;;;5126320;27;20035;-69
2021/11/04 10:11:10;;;;;;;3.75;2.13;;;6.80;39.50;;;;;;5120517;27;20082;-69
2021/11/04 10:13:42;;;;;;;3.22;2.10;;;6.80;39.80;;;;;;5116003;27;20108;-69
2021/11/04 10:16:17;;;;;;;4.88;2.60;;;6.90;40.00;;;;;;5122711;27;20043;-68
2021/11/04 10:18:55;;;;;;;4.80;3.15;;;6.80;40.30;;;;;;5122807;27;20416;-69
2021/11/04 10:21:43;;;;;;;5.00;2.88;;;6.80;42.20;;;;;;5120608;27;20122;-68
2021/11/04 10:24:18;;;;;;;6.28;3.53;;;6.90;42.60;;;;;;5118813;27;20062;-69
2021/11/04 10:26:54;;;;;;;5.85;3.90;;;6.70;42.60;;;;;;5121824;27;20047;-68
2021/11/04 10:29:25;;;;;;;9.20;5.43;;;6.80;43.80;;;;;;5120654;27;20494;-69
2021/11/04 10:31:57;;;;;;;12.77;6.30;;;6.70;43.40;;;;;;5121558;27;20625;-69
2021/11/04 10:34:27;;;;;;;11.77;6.70;;;6.80;43.70;;;;;;5103354;27;20130;-69
2021/11/04 10:37:08;;;;;;;13.73;8.15;;;6.70;43.70;;;;;;5116724;27;20130;-70
2021/11/04 10:39:38;;;;;;;16.40;9.18;;;6.80;44.40;;;;;;5122053;27;20138;-69
2021/11/04 10:42:11;;;;;;;15.32;9.68;;;6.90;44.60;;;;;;5125140;27;20078;-69
2021/11/04 10:44:45;;;;;;;19.95;11.85;;;6.80;44.80;;;;;;5113512;27;20036;-68
2021/11/04 10:47:31;;;;;;;19.52;12.05;;;6.80;44.20;;;;;;5113698;27;20612;-69
2021/11/04 10:50:06;;;;;;;22.17;13.18;;;6.70;43.60;;;;;;5119985;27;20051;-68
2021/11/04 10:52:35;;;;;;;22.52;13.68;;;6.80;45.50;;;;;;5113332;27;20046;-69
2021/11/04 10:55:09;;;;;;;26.85;14.55;;;6.70;45.40;;;;;;5123478;27;20486;-68
2021/11/04 10:57:39;;;;;;;25.30;14.38;;;6.70;46.20;;;;;;5117002;27;20054;-69
2021/11/04 11:00:17;;;;;;;26.27;15.23;;;6.70;46.10;;;;;;5113246;27;20035;-69
2021/11/04 11:03:07;;;;;;;25.33;15.15;;;6.70;45.70;;;;;;5121733;27;20094;-69
2021/11/04 11:05:38;;;;;;;25.80;13.90;;;6.80;44.70;;;;;;5125082;27;20416;-69
2021/11/04 11:08:14;;;;;;;26.08;14.10;;;6.80;45.80;;;;;;5117150;27;20490;-70
2021/11/04 11:10:49;;;;;;;23.58;14.32;;;6.70;43.00;;;;;;5119349;27;20229;-69
2021/11/04 11:13:25;;;;;;;21.33;12.93;;;6.80;44.80;;;;;;5115245;27;20123;-68
2021/11/04 11:15:57;;;;;;;21.52;12.35;;;6.70;43.70;;;;;;5118566;27;20444;-70
2021/11/04 11:18:33;;;;;;;21.17;12.07;;;6.70;44.10;;;;;;5118655;27;20047;-68
2021/11/04 11:21:05;;;;;;;19.25;11.95;;;6.80;45.40;;;;;;5122934;27;20114;-69
2021/11/04 11:23:37;;;;;;;20.35;12.93;;;6.80;44.20;;;;;;5113217;27;20379;-72
2021/11/04 11:26:10;;;;;;;19.30;11.70;;;6.80;43.20;;;;;;5119177;27;20086;-68
2021/11/04 11:28:43;;;;;;;20.70;12.57;;;6.90;44.00;;;;;;5120578;27;20042;-68
2021/11/04 11:31:21;;;;;;;18.25;11.85;;;6.80;43.30;;;;;;5115925;27;20050;-68
2021/11/04 11:34:20;;;;;;;20.75;12.18;;;6.70;40.80;;;;;;5115383;27;20054;-68
2021/11/04 11:37:14;;;;;;;19.02;11.98;;;6.70;42.20;;;;;;5117549;27;20111;-68
2021/11/04 11:40:11;;;;;;;17.80;11.57;;;6.80;42.30;;;;;;5108686;27;20092;-68
2021/11/04 11:42:56;;;;;;;20.33;12.80;;;6.80;43.30;;;;;;5112413;28;20039;-68
2021/11/04 11:45:25;;;;;;;17.10;11.02;;;6.80;42.30;;;;;;5118570;27;20073;-69
2021/11/04 11:48:17;;;;;;;18.23;11.55;;;6.80;39.90;;;;;;5111907;28;20062;-69
2021/11/04 11:50:50;;;;;;;18.77;11.10;;;6.80;39.40;;;;;;5096133;28;20517;-69
2021/11/04 11:53:24;;;;;;;18.50;12.40;;;6.90;39.60;;;;;;5116794;27;20593;-69
2021/11/04 11:55:53;;;;;;;;;;;7.00;40.10;;;;;;5116988;27;20082;-69
2021/11/04 11:58:27;;;;;;;21.67;12.93;;;7.00;38.90;;;;;;5094351;27;19946;-69
2021/11/04 12:01:09;;;;;;;20.02;13.35;;;7.00;39.50;;;;;;5122784;27;20616;-69
2021/11/04 12:03:59;;;;;;;17.88;11.40;;;7.10;38.00;;;;;;5115987;28;20431;-70
2021/11/04 12:06:56;;;;;;;18.70;12.57;;;7.20;37.40;;;;;;5112810;27;20100;-68
2021/11/04 12:09:43;;;;;;;17.83;12.00;;;7.30;37.50;;;;;;5116141;27;20055;-69
2021/11/04 12:12:45;;;;;;;20.05;12.27;;;7.10;35.60;;;;;;5117324;27;20036;-68
2021/11/04 12:15:16;;;;;;;21.00;13.20;;;7.00;36.60;;;;;;5121617;27;20070;-68
2021/11/04 12:18:16;;;;;;;19.63;13.32;;;7.10;37.40;;;;;;5118576;27;20043;-68
2021/11/04 12:20:56;;;;;;;20.35;13.13;;;7.10;36.30;;;;;;5112745;28;20473;-68
2021/11/04 12:23:47;;;;;;;19.85;12.75;;;7.00;37.60;;;;;;5117324;27;20051;-68
2021/11/04 12:26:15;;;;;;;16.45;11.10;;;7.20;38.40;;;;;;5121131;27;20051;-68
2021/11/04 12:28:48;;;;;;;17.73;11.27;;;7.10;36.40;;;;;;5117727;27;20047;-69
2021/11/04 12:31:25;;;;;;;16.48;10.85;;;7.10;36.60;;;;;;5122620;27;20039;-67
2021/11/04 12:34:00;;;;;;;15.80;10.73;;;7.20;35.70;;;;;;5120586;27;20040;-68
2021/11/04 12:36:35;;;;;;;;;;;7.10;35.60;;;;;;5124888;27;20043;-68
2021/11/04 12:39:06;;;;;;;15.02;9.35;;;7.20;35.60;;;;;;5121445;27;19962;-68
2021/11/04 12:41:46;;;;;;;15.95;9.10;;;7.00;32.30;;;;;;5120043;27;20077;-69
2021/11/04 12:44:23;;;;;;;13.70;9.00;;;7.10;33.20;;;;;;5120925;27;20045;-69
2021/11/04 12:46:51;;;;;;;14.40;9.23;;;7.10;32.30;;;;;;5118843;27;20507;-70
2021/11/04 12:49:25;;;;;;;12.93;9.15;;;7.20;31.40;;;;;;5119770;27;20035;-69
2021/11/04 12:52:01;;;;;;;14.68;8.85;;;7.10;31.70;;;;;;5104598;27;20040;-68
2021/11/04 12:54:34;;;;;;;12.40;8.20;;;7.10;31.40;;;;;;5122995;27;20039;-68
2021/11/04 12:57:07;;;;;;;12.50;8.40;;;7.20;31.40;;;;;;5114715;27;20276;-69
2021/11/04 12:59:38;;;;;;;13.20;9.48;;;7.20;30.40;;;;;;5120083;27;20049;-67
2021/11/04 13:02:09;;;;;;;18.60;10.02;;;7.30;30.20;;;;;;5116810;27;20074;-69
2021/11/04 13:04:43;;;;;;;14.93;10.15;;;7.30;28.90;;;;;;5102874;27;20403;-68
2021/11/04 13:07:15;;;;;;;15.95;10.63;;;7.40;29.40;;;;;;5124328;27;20043;-67
2021/11/04 13:09:49;;;;;;;16.52;10.00;;;7.30;30.00;;;;;;5118415;27;20066;-68
2021/11/04 13:12:19;;;;;;;17.50;10.25;;;7.40;29.30;;;;;;5084543;27;20505;-68
2021/11/04 13:15:02;;;;;;;15.02;10.52;;;7.50;28.50;;;;;;5107497;27;20050;-68
2021/11/04 13:17:53;;;;;;;15.55;9.55;;;7.40;28.00;;;;;;5078171;27;20043;-69